Terminal Aerodrome Forecast
Issued by NWS

Home | Current Version | Previous Version | Text Only | Print | Product List | Glossary On
Versions: 1 2 3 4 5 6 7 8 9 10 11 12 13 14 15 16 17 18 19 20 21
971
FTUS43 KICT 291731
TAFRSL
TAF
KRSL 291731Z 2918/3018 01023G31KT 4SM -SHRA VCTS OVC010CB
     FM300000 36021G29KT 4SM -RA OVC008
     FM300600 35017KT P6SM VCSH OVC008
     FM301200 35015G23KT P6SM OVC008=

USA.gov is the U.S. government's official web portal to all federal, state and local government web resources and services.